Pagrindinis puslapis
METAR-TAF:

METAR-TAF

Oro uostai :

Velykų sala, Čilė

platuma: 27-09S, ilguma: 109-25W, Aukštis: 51 m

Dabartinis oras

Ataskaita buvo paskelbta 50 minutes, ne 01:00 UTC
Vėjas 10 kt iš Pietryčių
Temperatūra 17°C
Drėgmė 63%
Slėgis 1023 hPa
Matomumas 10 km arba daugiau
Su prošvaistėmis ne aukštis 3500 ft
Apsiniaukę ne aukštis 4200 ft

METAR: SCIP 200100Z 14010KT 9999 BKN035 OVC042 17/10 Q1023 NOSIG

Laikas: 20:50 (01:50 UTC)

Prognozė

Ataskaita buvo paskelbta 3 valandos ir 45 minutes, ne 22:05 UTC
Prognozė galioja nuo 20 metu 00 UTC su 20 metu 24 UTC
Vėjas 10 kt iš Pietų/Pietryčių
Matomumas 10 km arba daugiau
Išsisklaidę debesys ne aukštis 2000 ft
Su prošvaistėmis ne aukštis 4000 ft
Laikinai
nuo 20 metu 00 UTC su 20 metu 10 UTC
Vėjas 15 kt iš Rytų/Pietryčių
Matomumas: 7000 m
Išsisklaidę debesys ne aukštis 1000 ft
Su prošvaistėmis ne aukštis 3000 ft
lietus

TAF: SCIP 192205Z 2000/2024 15010KT 9999 SCT020 BKN040 TX20/2019Z TN14/2006Z TEMPO 2000/2010 11015KT 7000 -SHRA SCT010 BKN030

Orai ataskaitas ir orų prognozės (METAR, TAF).

turimą stotys yra geltonos ir raudonos taškus žemėlapyje.

Perkelti pele per norėdami pamatyti stoties vardą.

Tada spustelėkite, norėdami matyti oro stebėjimo ir prognozės.

Norėdami pakeisti žemėlapį: spustelėkite ant žalios mygtukų su juodo kryžiaus žemyn,; žalią mygtuką su brūkšneliu, jei norite nutolinti; arba žalių rodyklių gretimoms žemėlapius.


METAR-TAF: